Time;durP1;ratioP1;P1;durP2;ratioP2;P2;SDS_P1;SDS_P2;PMS_P1;PMS_P2;Temp;Humidity;BMP_temperature;BMP_pressure;BME280_temperature;BME280_humidity;BME280_pressure;Samples;Min_cycle;Max_cycle;Signal;HPM_P1;HPM_P2
2022/01/24 00:02:16;;;;;;;7.87;3.30;;;6.20;99.90;;;;;;6183996;23;20001;-90
2022/01/24 00:04:42;;;;;;;6.37;3.50;;;6.10;99.90;;;;;;6159287;23;20041;-89
2022/01/24 00:07:08;;;;;;;6.57;3.70;;;6.10;99.90;;;;;;6159810;23;20324;-90
2022/01/24 00:09:34;;;;;;;7.17;4.00;;;6.10;99.90;;;;;;6134039;23;20005;-90
2022/01/24 00:17:16;;;;;;;5.03;3.00;;;5.90;99.90;;;;;;6159174;23;20332;-90
2022/01/24 00:27:59;;;;;;;5.23;3.20;;;5.80;99.90;;;;;;6158494;23;20067;-90
2022/01/24 00:30:25;;;;;;;4.73;2.90;;;5.70;99.90;;;;;;6158801;23;20499;-90
2022/01/24 00:32:51;;;;;;;4.20;2.63;;;5.70;99.90;;;;;;6183966;23;20330;-89
2022/01/24 00:35:17;;;;;;;4.63;2.80;;;5.60;99.90;;;;;;6159114;23;20012;-89
2022/01/24 00:37:43;;;;;;;3.57;2.53;;;5.60;99.90;;;;;;6158332;23;20443;-87
2022/01/24 00:40:09;;;;;;;5.23;2.90;;;5.60;99.90;;;;;;6183606;23;20013;-87
2022/01/24 00:42:58;;;;;;;5.60;2.60;;;5.50;99.90;;;;;;6158695;23;20009;-87
2022/01/24 00:55:40;;;;;;;4.87;2.50;;;5.30;99.90;;;;;;6158702;23;20013;-87
2022/01/24 00:58:06;;;;;;;5.57;2.90;;;5.40;99.90;;;;;;6157970;23;20009;-87
2022/01/24 01:00:32;;;;;;;4.10;2.30;;;5.30;99.90;;;;;;6158531;23;20091;-87
2022/01/24 01:02:58;;;;;;;6.50;2.53;;;5.20;99.90;;;;;;6184970;23;20009;-87
2022/01/24 01:06:00;;;;;;;4.53;2.40;;;5.20;99.90;;;;;;6159046;23;20025;-87
2022/01/24 01:19:19;;;;;;;5.00;2.77;;;5.00;99.90;;;;;;6184470;23;20076;-87
2022/01/24 01:21:44;;;;;;;5.43;2.27;;;4.90;99.90;;;;;;6184652;23;20427;-87
2022/01/24 01:24:10;;;;;;;5.53;2.30;;;5.00;99.90;;;;;;6158455;23;20005;-87
2022/01/24 01:26:42;;;;;;;4.30;2.50;;;4.90;99.90;;;;;;6158684;23;20005;-90
2022/01/24 01:29:17;;;;;;;4.83;2.30;;;4.90;99.90;;;;;;6158164;23;20013;-89
2022/01/24 01:32:05;;;;;;;6.13;2.47;;;5.00;99.90;;;;;;6158379;23;20104;-90
2022/01/24 01:37:24;;;;;;;4.33;2.20;;;5.00;99.90;;;;;;6158862;23;20144;-90
2022/01/24 01:55:42;;;;;;;3.10;1.97;;;5.20;99.90;;;;;;6184724;23;20424;-90
2022/01/24 01:58:10;;;;;;;4.63;2.43;;;5.30;99.90;;;;;;6133081;23;20013;-89
2022/01/24 02:00:40;;;;;;;3.95;2.30;;;5.30;99.90;;;;;;6183297;23;20058;-90
2022/01/24 02:03:06;;;;;;;3.70;2.30;;;5.40;99.90;;;;;;6183270;23;20036;-89
2022/01/24 02:05:36;;;;;;;3.42;2.45;;;5.40;99.90;;;;;;6134049;23;20013;-90
2022/01/24 02:08:03;;;;;;;4.07;2.57;;;5.50;99.90;;;;;;6157235;23;20436;-90
2022/01/24 02:10:32;;;;;;;3.70;2.27;;;5.50;99.90;;;;;;6182701;23;20009;-89
2022/01/24 02:12:57;;;;;;;3.47;2.40;;;5.50;99.90;;;;;;6183034;23;20002;-90
2022/01/24 02:15:52;;;;;;;5.77;2.43;;;5.60;99.90;;;;;;6158113;23;20005;-90
2022/01/24 02:23:42;;;;;;;4.03;2.33;;;5.60;99.90;;;;;;6158044;23;20344;-90
2022/01/24 02:26:15;;;;;;;3.73;2.50;;;5.60;99.90;;;;;;6133495;23;20232;-90
2022/01/24 02:28:53;;;;;;;5.43;2.40;;;5.60;99.90;;;;;;6157504;23;20032;-90
2022/01/24 02:34:02;;;;;;;3.17;1.97;;;5.70;99.90;;;;;;6184445;23;20006;-90
2022/01/24 02:36:28;;;;;;;3.90;2.30;;;5.70;99.90;;;;;;6182796;23;20340;-90
2022/01/24 02:49:50;;;;;;;4.53;2.10;;;5.80;99.90;;;;;;6183500;23;20091;-90
2022/01/24 02:52:17;;;;;;;3.70;1.90;;;5.80;99.90;;;;;;6182706;23;20440;-90
2022/01/24 02:54:44;;;;;;;5.07;2.20;;;5.80;99.90;;;;;;6158042;23;20440;-90
2022/01/24 02:57:10;;;;;;;4.90;2.20;;;5.90;99.90;;;;;;6182729;23;20015;-90
2022/01/24 02:59:37;;;;;;;2.73;1.90;;;5.80;99.90;;;;;;6157330;23;20009;-90
2022/01/24 03:02:04;;;;;;;3.40;2.30;;;6.00;99.90;;;;;;6182819;23;20450;-89
2022/01/24 03:04:30;;;;;;;3.13;2.00;;;6.00;99.90;;;;;;6182757;23;20360;-90
2022/01/24 03:06:55;;;;;;;2.87;1.70;;;6.00;99.90;;;;;;6157949;23;20009;-90
2022/01/24 03:09:22;;;;;;;3.07;1.80;;;6.00;99.90;;;;;;6182477;23;20009;-90
2022/01/24 03:14:43;;;;;;;3.00;1.80;;;6.10;99.90;;;;;;6145065;23;20495;-90
2022/01/24 03:17:09;;;;;;;3.10;1.73;;;6.10;99.90;;;;;;6183376;23;20112;-90
2022/01/24 03:19:35;;;;;;;4.40;2.00;;;6.10;99.90;;;;;;6159258;23;20017;-90
2022/01/24 03:22:02;;;;;;;5.30;1.90;;;6.10;99.90;;;;;;6186518;23;20005;-90
2022/01/24 03:24:27;;;;;;;3.63;1.77;;;6.10;99.90;;;;;;6185068;23;20001;-90
2022/01/24 03:26:53;;;;;;;4.03;2.00;;;6.10;99.90;;;;;;6184533;23;20032;-90
2022/01/24 03:29:19;;;;;;;2.57;1.73;;;6.10;99.90;;;;;;6183804;23;20016;-90
2022/01/24 03:31:47;;;;;;;3.00;1.97;;;6.10;99.90;;;;;;6203783;23;20036;-90
2022/01/24 03:34:14;;;;;;;2.37;1.60;;;6.00;99.90;;;;;;6184440;23;20336;-90
2022/01/24 03:36:42;;;;;;;2.80;1.67;;;6.10;99.90;;;;;;6159847;23;20348;-90
2022/01/24 03:39:10;;;;;;;3.10;1.70;;;6.10;99.90;;;;;;6184017;23;20009;-89
2022/01/24 03:41:39;;;;;;;2.20;1.50;;;6.10;99.90;;;;;;6159398;23;20004;-90
2022/01/24 03:44:05;;;;;;;2.50;1.65;;;6.10;99.90;;;;;;6184302;23;20009;-90
2022/01/24 03:46:47;;;;;;;4.23;2.00;;;6.20;99.90;;;;;;6159715;23;20052;-90
2022/01/24 03:49:45;;;;;;;3.73;1.90;;;6.10;99.90;;;;;;6159084;23;20001;-90
2022/01/24 03:51:59;;;;;;;3.50;1.90;;;6.10;99.90;;;;;;6184280;23;20012;-90
2022/01/24 03:54:25;;;;;;;3.53;1.70;;;6.10;99.90;;;;;;6159692;23;20317;-90
2022/01/24 03:56:51;;;;;;;2.87;1.80;;;6.10;99.90;;;;;;6159572;23;20012;-88
2022/01/24 03:59:17;;;;;;;2.97;1.90;;;6.10;99.90;;;;;;6158926;23;20067;-87
2022/01/24 04:01:42;;;;;;;3.20;1.93;;;6.10;99.90;;;;;;6185814;23;19997;-86
2022/01/24 04:04:08;;;;;;;3.87;2.03;;;6.20;99.90;;;;;;6159244;23;20009;-87
2022/01/24 04:06:34;;;;;;;4.37;2.07;;;6.20;99.90;;;;;;6184234;23;20040;-86
2022/01/24 04:08:59;;;;;;;2.43;1.60;;;6.10;99.90;;;;;;6158859;23;20001;-86
2022/01/24 04:11:32;;;;;;;3.23;1.97;;;6.10;99.90;;;;;;6159383;23;20424;-87
2022/01/24 04:14:10;;;;;;;3.23;1.83;;;6.20;99.90;;;;;;6184214;23;20008;-87
2022/01/24 04:16:40;;;;;;;4.27;2.43;;;6.20;99.90;;;;;;6159343;23;20024;-87
2022/01/24 04:21:16;;;;;;;3.40;2.13;;;6.20;99.90;;;;;;6183578;23;20016;-87
2022/01/24 04:21:55;;;;;;;3.85;1.90;;;6.20;99.90;;;;;;6183920;23;20081;-86
2022/01/24 04:24:23;;;;;;;4.07;2.00;;;6.10;99.90;;;;;;6184412;23;20017;-87
2022/01/24 04:26:49;;;;;;;3.17;1.90;;;6.10;99.90;;;;;;6159103;23;19997;-86
2022/01/24 04:29:15;;;;;;;2.50;1.50;;;6.10;99.90;;;;;;6158348;23;20044;-87
2022/01/24 04:31:43;;;;;;;3.97;1.70;;;6.10;99.90;;;;;;6162875;23;20005;-87
2022/01/24 04:34:09;;;;;;;3.33;1.50;;;6.10;99.90;;;;;;6185328;23;20060;-87
2022/01/24 04:36:35;;;;;;;3.40;1.60;;;6.10;99.90;;;;;;6134586;23;20013;-88
2022/01/24 04:39:02;;;;;;;3.23;1.60;;;6.10;99.90;;;;;;6158940;23;20044;-87
2022/01/24 04:41:38;;;;;;;3.10;1.57;;;6.10;99.90;;;;;;6159011;23;20079;-87
2022/01/24 04:52:14;;;;;;;2.87;1.67;;;6.10;99.90;;;;;;6158619;23;20083;-89
2022/01/24 04:54:41;;;;;;;3.00;1.90;;;6.00;99.90;;;;;;6158720;23;20005;-90
2022/01/24 04:57:10;;;;;;;3.67;1.73;;;6.10;99.90;;;;;;6158887;23;20016;-90
2022/01/24 04:59:36;;;;;;;3.40;1.93;;;6.00;99.90;;;;;;6184816;23;20302;-89
2022/01/24 05:02:02;;;;;;;2.90;1.97;;;6.10;99.90;;;;;;6158650;23;20372;-90
2022/01/24 05:04:28;;;;;;;3.20;1.90;;;6.00;99.90;;;;;;6158633;23;20036;-90
2022/01/24 05:06:54;;;;;;;3.00;2.07;;;6.00;99.90;;;;;;6158671;23;20356;-90
2022/01/24 05:09:21;;;;;;;2.57;1.70;;;6.00;99.90;;;;;;6158375;23;20008;-89
2022/01/24 05:11:53;;;;;;;2.93;1.83;;;6.00;99.90;;;;;;6183470;23;20017;-90
2022/01/24 05:25:17;;;;;;;5.23;1.80;;;6.10;99.90;;;;;;6158525;23;20009;-89
2022/01/24 05:27:43;;;;;;;3.23;1.80;;;6.10;99.90;;;;;;6158366;23;20005;-89
2022/01/24 05:30:09;;;;;;;2.97;1.80;;;6.10;99.90;;;;;;6156681;23;20091;-83
2022/01/24 05:32:35;;;;;;;4.13;1.87;;;6.10;99.90;;;;;;6187603;23;20009;-82
2022/01/24 05:35:01;;;;;;;5.23;1.90;;;6.10;99.90;;;;;;6138507;23;20071;-82
2022/01/24 05:37:27;;;;;;;4.97;1.83;;;6.10;99.90;;;;;;6188771;23;20065;-85
2022/01/24 05:39:52;;;;;;;3.70;1.70;;;6.10;99.90;;;;;;6138575;23;20355;-82
2022/01/24 05:42:21;;;;;;;4.53;1.80;;;6.10;99.90;;;;;;6187818;23;20321;-82
2022/01/24 05:44:49;;;;;;;3.40;1.70;;;6.10;99.90;;;;;;6190307;23;20005;-83
2022/01/24 05:47:15;;;;;;;4.47;2.00;;;6.10;99.90;;;;;;6195505;23;20243;-83
2022/01/24 05:49:41;;;;;;;2.97;1.83;;;6.00;99.90;;;;;;6169887;23;20005;-84
2022/01/24 05:52:09;;;;;;;13.47;2.00;;;6.10;99.90;;;;;;6191107;23;20005;-84
2022/01/24 05:54:37;;;;;;;3.77;1.80;;;6.10;99.90;;;;;;6194246;23;20339;-83
2022/01/24 05:57:04;;;;;;;3.97;2.07;;;6.10;99.90;;;;;;6192968;23;20009;-83
2022/01/24 05:59:30;;;;;;;3.80;2.00;;;6.10;99.90;;;;;;6193396;23;20089;-84
2022/01/24 06:01:55;;;;;;;5.07;2.13;;;6.10;99.90;;;;;;6140105;23;20005;-82
2022/01/24 06:04:21;;;;;;;3.83;2.10;;;6.20;99.90;;;;;;6164529;23;20520;-82
2022/01/24 06:06:47;;;;;;;3.77;2.37;;;6.20;99.90;;;;;;6187326;23;20033;-82
2022/01/24 06:09:12;;;;;;;4.00;2.07;;;6.20;99.90;;;;;;6137547;23;20005;-81
2022/01/24 06:11:43;;;;;;;4.20;2.20;;;6.20;99.90;;;;;;6187984;23;20016;-84
2022/01/24 06:14:09;;;;;;;6.10;3.83;;;6.20;99.90;;;;;;6186898;23;20047;-85
2022/01/24 06:16:34;;;;;;;5.53;2.87;;;6.10;99.90;;;;;;6193944;23;20005;-82
2022/01/24 06:19:00;;;;;;;4.33;2.50;;;6.10;99.90;;;;;;6187329;23;20482;-81
2022/01/24 06:21:26;;;;;;;4.20;2.60;;;6.10;99.90;;;;;;6186851;23;20005;-81
2022/01/24 06:23:52;;;;;;;5.93;2.97;;;6.20;99.90;;;;;;6162775;23;20031;-83
2022/01/24 06:26:18;;;;;;;4.87;2.70;;;6.20;99.90;;;;;;6188664;23;19998;-82
2022/01/24 06:28:44;;;;;;;3.63;2.50;;;6.20;99.90;;;;;;6138488;23;20092;-83
2022/01/24 06:31:09;;;;;;;4.17;2.90;;;6.20;99.90;;;;;;6171992;23;20004;-82
2022/01/24 06:33:35;;;;;;;6.10;2.80;;;6.20;99.90;;;;;;6189630;23;20005;-81
2022/01/24 06:36:02;;;;;;;4.43;2.97;;;6.20;99.90;;;;;;6188985;23;20451;-82
2022/01/24 06:38:28;;;;;;;2.77;2.10;;;6.20;99.90;;;;;;6186867;23;20008;-81
2022/01/24 06:40:54;;;;;;;7.40;2.80;;;6.20;99.90;;;;;;6212341;23;20009;-84
2022/01/24 06:43:20;;;;;;;3.77;2.30;;;6.20;99.90;;;;;;6212951;23;20489;-81
2022/01/24 06:45:46;;;;;;;5.00;2.57;;;6.20;99.90;;;;;;6214269;23;20459;-81
2022/01/24 06:48:12;;;;;;;4.87;2.37;;;6.20;99.90;;;;;;6190237;23;20301;-81
2022/01/24 06:50:37;;;;;;;6.30;2.73;;;6.30;99.90;;;;;;6191304;23;20005;-82
2022/01/24 06:53:03;;;;;;;4.63;2.80;;;6.20;99.90;;;;;;6215681;23;20005;-82
2022/01/24 06:55:30;;;;;;;6.60;2.43;;;6.20;99.90;;;;;;6190874;23;20054;-83
2022/01/24 06:57:56;;;;;;;4.20;2.70;;;6.20;99.90;;;;;;6190582;23;20056;-81
2022/01/24 07:00:25;;;;;;;4.83;2.83;;;6.10;99.90;;;;;;6190099;23;20008;-81
2022/01/24 07:02:55;;;;;;;;;;;6.20;99.90;;;;;;6214658;23;20019;-83
2022/01/24 07:05:21;;;;;;;7.18;2.92;;;6.10;99.90;;;;;;6191058;23;19959;-82
2022/01/24 07:07:47;;;;;;;4.37;2.80;;;6.20;99.90;;;;;;6193667;23;20009;-83
2022/01/24 07:10:13;;;;;;;7.97;2.50;;;6.20;99.90;;;;;;6193363;23;20001;-83
2022/01/24 07:12:39;;;;;;;6.20;3.10;;;6.20;99.90;;;;;;6192673;23;20511;-81
2022/01/24 07:15:10;;;;;;;6.50;2.90;;;6.20;99.90;;;;;;6193399;23;20033;-83
2022/01/24 07:20:16;;;;;;;5.07;2.83;;;6.20;99.90;;;;;;6193899;23;20020;-83
2022/01/24 07:22:43;;;;;;;4.07;2.50;;;6.10;99.90;;;;;;6195151;23;20112;-82
2022/01/24 07:25:09;;;;;;;4.67;2.60;;;6.20;99.90;;;;;;6168924;23;20322;-82
2022/01/24 07:27:35;;;;;;;7.30;2.93;;;6.20;99.90;;;;;;6218654;23;20031;-82
2022/01/24 07:30:03;;;;;;;5.77;2.90;;;6.20;99.90;;;;;;6194906;23;19997;-82
2022/01/24 07:32:30;;;;;;;4.83;2.70;;;6.20;99.90;;;;;;6197580;23;20013;-82
2022/01/24 07:34:56;;;;;;;5.80;3.07;;;6.10;99.90;;;;;;6195050;23;20008;-83
2022/01/24 07:37:23;;;;;;;5.47;3.50;;;6.20;99.90;;;;;;6197864;23;20005;-81
2022/01/24 07:39:49;;;;;;;8.60;3.07;;;6.20;99.90;;;;;;6196934;23;20498;-83
2022/01/24 07:42:18;;;;;;;5.20;2.77;;;6.20;99.90;;;;;;6197551;23;20016;-83
2022/01/24 07:44:44;;;;;;;5.63;2.97;;;6.20;99.90;;;;;;6171269;23;20005;-84
2022/01/24 07:47:11;;;;;;;4.80;2.93;;;6.20;99.90;;;;;;6196367;23;20012;-82
2022/01/24 07:49:36;;;;;;;5.07;3.00;;;6.20;99.90;;;;;;6196071;23;20076;-84
2022/01/24 07:52:03;;;;;;;6.60;2.80;;;6.20;99.90;;;;;;6198816;23;20428;-84
2022/01/24 07:54:29;;;;;;;6.73;2.70;;;6.20;99.90;;;;;;6199168;23;20012;-83
2022/01/24 07:56:55;;;;;;;4.27;2.60;;;6.20;99.90;;;;;;6198285;23;20005;-84
2022/01/24 07:59:20;;;;;;;8.83;3.27;;;6.20;99.90;;;;;;6198174;23;20005;-85
2022/01/24 08:01:48;;;;;;;6.63;3.10;;;6.20;99.90;;;;;;6173477;23;20407;-84
2022/01/24 08:04:14;;;;;;;8.60;3.07;;;6.20;99.90;;;;;;6195964;23;20064;-85
2022/01/24 08:06:39;;;;;;;4.17;2.43;;;6.20;99.90;;;;;;6188272;23;20013;-83
2022/01/24 08:09:09;;;;;;;5.43;2.80;;;6.20;99.90;;;;;;6187642;23;20013;-84
2022/01/24 08:11:36;;;;;;;5.23;3.23;;;6.40;99.90;;;;;;6188679;23;20008;-83
2022/01/24 08:14:02;;;;;;;5.50;2.30;;;6.50;99.90;;;;;;6189635;23;20424;-81
2022/01/24 08:16:28;;;;;;;3.83;2.40;;;6.50;99.90;;;;;;6190390;23;20009;-82
2022/01/24 08:18:57;;;;;;;5.10;2.30;;;6.60;99.90;;;;;;6164357;23;20016;-83
2022/01/24 08:21:23;;;;;;;5.60;2.50;;;6.70;99.90;;;;;;6197460;23;20005;-83
2022/01/24 08:23:50;;;;;;;5.17;2.27;;;6.70;99.90;;;;;;6175252;23;20025;-84
2022/01/24 08:26:16;;;;;;;6.43;2.43;;;6.60;99.90;;;;;;6172661;23;20028;-83
2022/01/24 08:28:42;;;;;;;3.90;2.13;;;6.60;99.90;;;;;;6197596;23;20008;-84
2022/01/24 08:31:08;;;;;;;4.87;2.40;;;6.50;99.90;;;;;;6172776;23;20059;-86
2022/01/24 08:33:34;;;;;;;14.40;3.53;;;6.50;99.90;;;;;;6187905;23;20016;-87
2022/01/24 08:36:01;;;;;;;5.97;2.50;;;6.50;99.90;;;;;;6187218;23;20000;-87
2022/01/24 08:38:29;;;;;;;5.30;2.27;;;6.60;99.90;;;;;;6186931;23;20444;-87
2022/01/24 08:40:59;;;;;;;6.53;3.10;;;6.60;99.90;;;;;;6186538;23;20320;-87
2022/01/24 08:46:26;;;;;;;4.70;2.40;;;6.50;99.90;;;;;;6155460;23;20020;-87
2022/01/24 08:48:52;;;;;;;7.43;2.93;;;6.50;99.90;;;;;;6155947;23;20016;-88
2022/01/24 08:51:18;;;;;;;5.17;2.60;;;6.50;99.90;;;;;;6187822;23;20013;-87
2022/01/24 08:53:44;;;;;;;5.33;2.80;;;6.50;99.90;;;;;;6189514;23;20005;-87
2022/01/24 08:56:13;;;;;;;5.13;2.63;;;6.60;99.90;;;;;;6189904;23;20005;-87
2022/01/24 08:58:39;;;;;;;7.10;2.83;;;6.60;99.90;;;;;;6191820;23;20036;-87
2022/01/24 09:01:05;;;;;;;5.03;2.73;;;6.60;99.90;;;;;;6189436;23;20008;-86
2022/01/24 09:03:36;;;;;;;5.47;2.50;;;6.60;99.90;;;;;;6184563;23;20005;-86
2022/01/24 09:06:02;;;;;;;3.70;2.50;;;6.60;99.90;;;;;;6209275;23;20033;-86
2022/01/24 09:08:30;;;;;;;5.57;2.47;;;6.60;99.90;;;;;;6209357;23;20010;-86
2022/01/24 09:10:56;;;;;;;7.03;2.77;;;6.60;99.90;;;;;;6183850;23;20376;-87
2022/01/24 09:13:22;;;;;;;5.03;2.80;;;6.60;99.90;;;;;;6184279;23;20028;-86
2022/01/24 09:15:48;;;;;;;5.43;2.97;;;6.60;99.90;;;;;;6208885;23;20005;-86
2022/01/24 09:18:15;;;;;;;5.03;2.70;;;6.60;99.90;;;;;;6184147;23;20398;-86
2022/01/24 09:20:41;;;;;;;5.67;2.60;;;6.60;99.90;;;;;;6183852;23;20020;-86
2022/01/24 09:23:09;;;;;;;4.27;2.70;;;6.70;99.90;;;;;;6184275;23;20440;-87
2022/01/24 09:25:35;;;;;;;5.70;3.20;;;6.70;99.90;;;;;;6183731;23;20005;-87
2022/01/24 09:28:01;;;;;;;7.30;3.40;;;6.70;99.90;;;;;;6184061;23;20005;-86
2022/01/24 09:30:27;;;;;;;5.83;2.90;;;6.70;99.90;;;;;;6183762;23;20005;-86
2022/01/24 09:32:52;;;;;;;4.80;2.73;;;6.70;99.90;;;;;;6184052;23;20514;-87
2022/01/24 09:35:20;;;;;;;6.70;2.80;;;6.70;99.90;;;;;;6183960;23;20016;-87
2022/01/24 09:37:47;;;;;;;5.40;3.17;;;6.70;99.90;;;;;;6208767;23;20033;-86
2022/01/24 09:40:15;;;;;;;7.60;3.40;;;6.70;99.90;;;;;;6208764;23;20016;-86
2022/01/24 09:42:43;;;;;;;4.33;2.67;;;6.80;99.90;;;;;;6208539;23;20001;-87
2022/01/24 09:45:10;;;;;;;4.13;2.50;;;6.80;99.90;;;;;;6185815;23;20013;-85
2022/01/24 09:47:36;;;;;;;7.30;2.67;;;6.70;99.90;;;;;;6186924;23;20048;-84
2022/01/24 09:50:07;;;;;;;6.27;2.97;;;6.80;99.90;;;;;;6185497;23;20032;-82
2022/01/24 09:52:33;;;;;;;4.00;2.60;;;6.80;99.90;;;;;;6209107;23;20499;-82
2022/01/24 09:54:58;;;;;;;5.53;3.10;;;6.90;99.90;;;;;;6184543;23;20428;-83
2022/01/24 09:57:24;;;;;;;5.90;2.90;;;6.80;99.90;;;;;;6186364;23;20009;-83
2022/01/24 09:59:51;;;;;;;5.50;2.70;;;6.90;99.90;;;;;;6158306;23;20005;-81
2022/01/24 10:02:16;;;;;;;6.50;2.60;;;6.90;99.90;;;;;;6185368;23;20036;-81
2022/01/24 10:04:42;;;;;;;3.97;2.50;;;6.90;99.90;;;;;;6184063;23;20001;-82
2022/01/24 10:07:11;;;;;;;6.13;2.60;;;6.90;99.90;;;;;;6184330;23;20009;-84
2022/01/24 10:09:43;;;;;;;8.00;2.67;;;6.80;99.90;;;;;;6208543;23;20009;-83
2022/01/24 10:17:54;;;;;;;5.43;2.80;;;6.90;99.90;;;;;;6191902;23;20520;-85
2022/01/24 10:20:26;;;;;;;5.57;2.80;;;6.90;99.90;;;;;;6217430;23;20007;-85
2022/01/24 10:23:17;;;;;;;4.57;2.90;;;6.90;99.90;;;;;;6190785;23;20480;-86
2022/01/24 10:25:47;;;;;;;6.40;2.83;;;7.00;99.90;;;;;;6191865;23;20006;-86
2022/01/24 10:28:22;;;;;;;3.77;2.60;;;7.00;99.90;;;;;;6191076;23;20001;-85
2022/01/24 10:31:10;;;;;;;6.03;2.90;;;6.90;99.90;;;;;;6190733;23;20012;-85
2022/01/24 10:34:22;;;;;;;6.30;3.00;;;7.00;99.90;;;;;;6208415;23;20463;-86
2022/01/24 10:36:50;;;;;;;6.43;2.77;;;6.90;99.90;;;;;;6184722;23;20036;-82
2022/01/24 10:39:33;;;;;;;6.55;3.00;;;7.00;99.90;;;;;;6183416;23;20013;-86
2022/01/24 10:45:03;;;;;;;6.27;3.03;;;7.00;99.90;;;;;;6185160;23;20095;-87
2022/01/24 10:47:32;;;;;;;4.77;3.03;;;7.00;99.90;;;;;;6156502;23;20095;-86
2022/01/24 10:50:00;;;;;;;4.10;2.65;;;7.10;99.90;;;;;;6183250;23;20035;-86
2022/01/24 10:52:30;;;;;;;5.17;2.73;;;7.00;99.90;;;;;;6183726;23;20372;-86
2022/01/24 10:55:17;;;;;;;5.97;2.80;;;7.00;99.90;;;;;;6208379;23;20356;-86
2022/01/24 10:57:45;;;;;;;5.90;3.00;;;7.10;99.90;;;;;;6159015;23;20012;-83
2022/01/24 11:00:23;;;;;;;6.35;3.20;;;7.10;99.90;;;;;;6189312;23;20459;-83
2022/01/24 11:02:51;;;;;;;11.50;4.00;;;7.10;99.90;;;;;;6210483;23;20021;-86
2022/01/24 11:05:22;;;;;;;6.87;3.27;;;7.10;99.90;;;;;;6208333;23;20009;-85
2022/01/24 11:07:50;;;;;;;6.43;3.03;;;7.20;99.90;;;;;;6183774;23;20072;-87
2022/01/24 11:10:16;;;;;;;7.27;3.23;;;7.10;99.90;;;;;;6213760;23;20040;-83
2022/01/24 11:12:42;;;;;;;6.73;3.40;;;7.20;99.90;;;;;;6192681;23;20092;-85
2022/01/24 11:15:10;;;;;;;6.30;3.50;;;7.20;99.90;;;;;;6190175;23;20009;-85
2022/01/24 11:17:36;;;;;;;7.00;3.10;;;7.20;99.90;;;;;;6188800;23;20041;-84
2022/01/24 11:20:03;;;;;;;4.77;3.20;;;7.20;99.90;;;;;;6186704;23;20009;-84
2022/01/24 11:22:32;;;;;;;5.23;3.17;;;7.20;99.90;;;;;;6187856;23;20036;-86
2022/01/24 11:25:02;;;;;;;8.50;4.05;;;7.20;99.90;;;;;;6188869;23;20008;-85
2022/01/24 11:27:29;;;;;;;6.40;3.30;;;7.20;99.90;;;;;;6191210;23;20009;-88
2022/01/24 11:29:58;;;;;;;7.40;3.63;;;7.20;99.90;;;;;;6192889;23;20029;-87
2022/01/24 11:32:38;;;;;;;6.18;3.42;;;7.20;99.90;;;;;;6152679;23;20024;-86
2022/01/24 11:35:05;;;;;;;7.13;3.20;;;7.20;99.90;;;;;;6212479;23;20015;-86
2022/01/24 11:37:44;;;;;;;6.40;3.90;;;7.20;99.90;;;;;;6213332;23;20550;-84
2022/01/24 11:40:13;;;;;;;4.80;3.20;;;7.20;99.90;;;;;;6223691;23;20023;-86
2022/01/24 11:42:40;;;;;;;;;;;7.20;99.90;;;;;;6229340;23;20247;-84
2022/01/24 11:45:14;;;;;;;8.43;3.33;;;7.20;99.90;;;;;;6214470;23;19954;-85
2022/01/24 11:47:42;;;;;;;5.47;3.40;;;7.30;99.90;;;;;;6164201;23;20004;-85
2022/01/24 11:50:31;;;;;;;6.87;3.30;;;7.30;99.90;;;;;;6214275;23;20001;-86
2022/01/24 11:52:58;;;;;;;5.15;2.90;;;7.40;99.90;;;;;;6189143;23;20497;-85
2022/01/24 11:55:34;;;;;;;6.13;3.17;;;7.40;99.90;;;;;;6214191;23;20346;-85
2022/01/24 11:58:07;;;;;;;7.13;3.30;;;7.50;99.90;;;;;;6214088;23;20009;-89
2022/01/24 12:00:39;;;;;;;6.63;3.57;;;7.50;99.90;;;;;;6190029;23;20008;-88
2022/01/24 12:03:20;;;;;;;7.60;4.03;;;7.50;99.90;;;;;;6189651;23;20415;-88
2022/01/24 12:05:50;;;;;;;6.27;3.30;;;7.50;99.90;;;;;;6214501;23;20009;-89
2022/01/24 12:08:35;;;;;;;4.93;3.10;;;7.40;99.90;;;;;;6214043;23;20339;-86
2022/01/24 12:11:16;;;;;;;6.83;3.60;;;7.50;99.90;;;;;;6191198;23;20005;-88
2022/01/24 12:13:44;;;;;;;7.80;3.20;;;7.50;99.90;;;;;;6192217;23;20016;-88
2022/01/24 12:16:17;;;;;;;5.03;3.33;;;7.50;99.90;;;;;;6217913;23;20343;-87
2022/01/24 12:18:48;;;;;;;7.90;3.53;;;7.50;99.90;;;;;;6193330;23;20290;-86
2022/01/24 12:21:23;;;;;;;7.87;3.57;;;7.50;99.90;;;;;;6192856;23;20387;-87
2022/01/24 12:23:52;;;;;;;8.57;3.67;;;7.40;99.90;;;;;;6214317;23;20035;-86
2022/01/24 12:26:18;;;;;;;5.85;3.40;;;7.40;99.90;;;;;;6189122;23;20011;-86
2022/01/24 12:29:16;;;;;;;6.17;3.57;;;7.50;99.90;;;;;;6214612;23;20009;-86
2022/01/24 12:31:59;;;;;;;6.80;3.40;;;7.40;99.90;;;;;;6214039;23;20504;-86
2022/01/24 12:34:33;;;;;;;5.97;3.67;;;7.40;99.90;;;;;;6188973;23;20008;-85
2022/01/24 12:37:07;;;;;;;4.60;3.20;;;7.50;99.90;;;;;;6213988;23;20012;-85
2022/01/24 12:40:03;;;;;;;6.43;3.40;;;7.40;99.90;;;;;;6213948;23;20011;-86
2022/01/24 12:48:21;;;;;;;6.03;3.37;;;7.60;99.90;;;;;;6129344;23;20482;-86
2022/01/24 12:50:52;;;;;;;6.47;3.10;;;7.50;99.90;;;;;;6151481;23;20548;-86
2022/01/24 12:53:19;;;;;;;5.10;3.50;;;7.50;99.90;;;;;;6127090;23;20436;-86
2022/01/24 12:55:55;;;;;;;8.40;3.33;;;7.50;99.90;;;;;;6127029;23;20450;-86
2022/01/24 12:58:33;;;;;;;5.80;3.40;;;7.50;99.90;;;;;;6153285;23;20010;-86
2022/01/24 13:00:59;;;;;;;7.27;4.07;;;7.60;99.90;;;;;;6102545;23;20017;-86
2022/01/24 13:03:25;;;;;;;7.80;3.93;;;7.60;99.90;;;;;;6151309;23;20283;-86
2022/01/24 13:05:50;;;;;;;8.53;4.50;;;7.60;99.90;;;;;;6129019;23;20064;-86
2022/01/24 13:08:17;;;;;;;7.17;3.93;;;7.60;99.90;;;;;;6155909;23;20041;-86
2022/01/24 13:10:47;;;;;;;7.53;3.57;;;7.60;99.90;;;;;;6153541;23;20041;-86
2022/01/24 13:13:14;;;;;;;5.57;2.90;;;7.60;99.90;;;;;;6129544;23;20349;-86
2022/01/24 13:21:17;;;;;;;8.73;4.90;;;7.60;99.90;;;;;;6128664;23;20068;-87
2022/01/24 13:24:00;;;;;;;6.53;4.03;;;7.60;99.90;;;;;;6153337;23;20039;-87
2022/01/24 13:26:26;;;;;;;10.80;3.60;;;7.50;99.90;;;;;;6104567;23;20092;-86
2022/01/24 13:29:04;;;;;;;7.17;3.60;;;7.50;99.90;;;;;;6128912;23;20006;-86
2022/01/24 13:31:31;;;;;;;7.13;3.63;;;7.50;99.90;;;;;;6129340;23;20029;-86
2022/01/24 13:33:58;;;;;;;6.13;3.30;;;7.50;99.90;;;;;;6128720;23;20044;-86
2022/01/24 13:36:24;;;;;;;5.30;3.47;;;7.40;99.90;;;;;;6153329;23;20073;-86
2022/01/24 13:38:51;;;;;;;6.90;3.83;;;7.40;99.90;;;;;;6129052;23;20424;-86
2022/01/24 13:41:20;;;;;;;5.73;3.60;;;7.40;99.90;;;;;;6128540;23;20006;-86
2022/01/24 13:43:45;;;;;;;7.25;3.75;;;7.40;99.90;;;;;;6153397;23;20009;-86
2022/01/24 13:46:33;;;;;;;6.17;3.60;;;7.40;99.90;;;;;;6129159;23;20012;-86
2022/01/24 13:49:17;;;;;;;8.37;3.90;;;7.40;99.90;;;;;;6153410;23;20428;-86
2022/01/24 13:51:47;;;;;;;6.50;3.83;;;7.40;99.90;;;;;;6153244;23;20006;-86
2022/01/24 13:54:17;;;;;;;7.70;3.33;;;7.40;99.90;;;;;;6153323;23;20487;-86
2022/01/24 13:56:44;;;;;;;5.83;3.87;;;7.40;99.90;;;;;;6104314;23;20101;-86
2022/01/24 13:59:22;;;;;;;6.47;3.87;;;7.40;99.90;;;;;;6153266;23;20057;-86
2022/01/24 14:01:57;;;;;;;6.75;3.72;;;7.30;99.90;;;;;;6104064;23;20392;-86
2022/01/24 14:04:29;;;;;;;6.90;4.30;;;7.30;99.90;;;;;;6154586;23;20429;-88
2022/01/24 14:06:57;;;;;;;7.33;3.80;;;7.30;99.90;;;;;;6153139;23;20341;-86
2022/01/24 14:09:36;;;;;;;7.17;3.77;;;7.30;99.90;;;;;;6153216;23;20068;-86
2022/01/24 14:12:03;;;;;;;;;;;7.30;99.90;;;;;;6129218;23;20017;-87
2022/01/24 14:14:38;;;;;;;5.83;3.17;;;7.30;99.90;;;;;;6128661;23;19909;-87
2022/01/24 14:17:24;;;;;;;7.77;3.63;;;7.20;99.90;;;;;;6155169;23;20087;-86
2022/01/24 14:19:56;;;;;;;8.60;3.67;;;7.20;99.90;;;;;;6153221;23;20348;-87
2022/01/24 14:22:23;;;;;;;9.83;3.63;;;7.20;99.90;;;;;;6154480;23;20009;-87
2022/01/24 14:24:57;;;;;;;5.37;3.63;;;7.30;99.90;;;;;;6153035;23;20056;-86
2022/01/24 14:27:43;;;;;;;13.43;3.90;;;7.30;99.90;;;;;;6128580;23;20041;-87
2022/01/24 14:30:11;;;;;;;5.97;3.40;;;7.20;99.90;;;;;;6152974;23;20010;-87
2022/01/24 14:32:45;;;;;;;5.10;3.53;;;7.20;99.90;;;;;;6128326;23;20093;-86
2022/01/24 14:35:11;;;;;;;10.97;4.67;;;7.30;99.90;;;;;;6128585;23;20009;-86
2022/01/24 14:37:52;;;;;;;5.83;3.50;;;7.20;99.90;;;;;;6153353;23;20014;-87
2022/01/24 14:40:33;;;;;;;7.50;3.23;;;7.20;99.90;;;;;;6153381;23;20014;-86
2022/01/24 14:45:43;;;;;;;7.10;4.03;;;7.10;99.90;;;;;;6154611;23;20067;-87
2022/01/24 14:48:09;;;;;;;9.70;4.40;;;7.20;99.90;;;;;;6128275;23;20500;-87
2022/01/24 14:50:36;;;;;;;7.70;3.73;;;7.10;99.90;;;;;;6152957;23;19998;-87
2022/01/24 14:53:05;;;;;;;8.80;3.87;;;7.10;99.90;;;;;;6152729;23;20041;-87
2022/01/24 14:55:31;;;;;;;7.05;3.95;;;7.10;99.90;;;;;;6153124;23;20013;-87
2022/01/24 14:57:57;;;;;;;8.87;4.27;;;7.10;99.90;;;;;;6128426;23;20014;-86
2022/01/24 15:00:24;;;;;;;10.03;5.07;;;7.10;99.90;;;;;;6129898;23;20097;-87
2022/01/24 15:02:50;;;;;;;10.23;4.63;;;7.10;99.90;;;;;;6128214;23;20037;-86
2022/01/24 15:05:17;;;;;;;9.33;5.10;;;7.10;99.90;;;;;;6128338;23;20017;-87
2022/01/24 15:07:43;;;;;;;7.70;3.87;;;7.10;99.90;;;;;;6128673;23;20100;-86
2022/01/24 15:10:09;;;;;;;9.90;4.50;;;7.10;99.90;;;;;;6128433;23;20013;-87
2022/01/24 15:12:42;;;;;;;7.93;4.80;;;7.00;99.90;;;;;;6152871;23;20037;-87